createdAt,value
2023-01-08T00:00:43.094Z,100007.56
2023-01-08T00:05:06.934Z,99997.97
2023-01-08T00:09:11.794Z,99999.75
2023-01-08T00:13:14.720Z,99987.53
2023-01-08T00:17:17.656Z,99987.75
2023-01-08T00:21:20.961Z,99978.59
2023-01-08T00:25:25.245Z,99978.06
2023-01-08T00:29:28.432Z,99969.28
2023-01-08T00:33:31.758Z,99969.59
2023-01-08T00:37:34.392Z,99974.81
2023-01-08T00:41:39.052Z,99979.00
2023-01-08T00:45:42.126Z,99969.50
2023-01-08T00:49:45.319Z,99972.19
2023-01-08T00:53:48.447Z,99968.44
2023-01-08T00:57:53.017Z,99959.72
2023-01-08T01:01:58.601Z,99960.66
2023-01-08T01:06:02.823Z,99967.75
2023-01-08T01:10:06.194Z,99958.63
2023-01-08T01:14:14.435Z,99963.63
2023-01-08T01:18:17.622Z,99961.19
2023-01-08T01:22:20.348Z,99956.88
2023-01-08T01:26:25.125Z,99956.13
2023-01-08T01:30:29.436Z,99954.63
2023-01-08T01:34:32.728Z,99942.44
2023-01-08T01:38:35.673Z,99940.56
2023-01-08T01:42:41.848Z,99939.69
2023-01-08T01:46:46.526Z,99934.41
2023-01-08T01:50:54.346Z,99923.63
2023-01-08T01:54:58.630Z,99926.28
2023-01-08T01:59:02.209Z,99923.63
2023-01-08T02:03:07.174Z,99913.25
2023-01-08T02:07:17.797Z,99909.13
2023-01-08T02:11:27.122Z,99916.38
2023-01-08T02:15:36.432Z,99905.22
2023-01-08T02:19:47.303Z,99892.09
2023-01-08T02:24:01.158Z,99888.75
2023-01-08T02:28:10.032Z,99873.84
2023-01-08T02:32:13.117Z,99874.69
2023-01-08T02:36:26.181Z,99878.41
2023-01-08T02:40:34.684Z,99888.84
2023-01-08T02:44:52.430Z,99883.44
2023-01-08T02:49:00.074Z,99878.97
2023-01-08T02:53:10.593Z,99883.53
2023-01-08T02:57:15.978Z,99878.63
2023-01-08T03:01:22.738Z,99874.41
2023-01-08T03:05:28.854Z,99884.69
2023-01-08T03:09:33.342Z,99887.28
2023-01-08T03:13:41.867Z,99876.09
2023-01-08T03:17:51.652Z,99878.75
2023-01-08T03:21:55.943Z,99878.44
2023-01-08T03:26:02.235Z,99863.94
2023-01-08T03:30:08.238Z,99846.69
2023-01-08T03:34:14.869Z,99853.34
2023-01-08T03:38:22.725Z,99849.03
2023-01-08T03:42:27.211Z,99842.09
2023-01-08T03:46:34.979Z,99837.81
2023-01-08T03:50:39.507Z,99843.94
2023-01-08T03:54:42.293Z,99843.88
2023-01-08T03:58:45.621Z,99837.69
2023-01-08T04:02:48.675Z,99846.06
2023-01-08T04:06:54.392Z,99837.56
2023-01-08T04:10:57.530Z,99834.34
2023-01-08T04:15:00.406Z,99837.16
2023-01-08T04:19:03.201Z,99826.00
2023-01-08T04:23:07.666Z,99819.84
2023-01-08T04:27:10.610Z,99820.75
2023-01-08T04:31:14.133Z,99812.03
2023-01-08T04:35:17.164Z,99829.47
2023-01-08T04:39:21.755Z,99829.72
2023-01-08T04:43:24.576Z,99822.03
2023-01-08T04:47:27.829Z,99823.69
2023-01-08T04:51:51.556Z,99816.25
2023-01-08T04:55:56.203Z,99806.66
2023-01-08T04:59:59.062Z,99810.22
2023-01-08T05:04:07.434Z,99817.88
2023-01-08T05:08:10.145Z,99821.63
2023-01-08T05:12:14.746Z,99815.69
2023-01-08T05:16:18.465Z,99810.63
2023-01-08T05:20:21.345Z,99810.75
2023-01-08T05:24:24.508Z,99816.66
2023-01-08T05:28:29.530Z,99801.00
2023-01-08T05:32:32.805Z,99804.34
2023-01-08T05:36:36.096Z,99798.31
2023-01-08T05:40:38.806Z,99798.13
2023-01-08T05:44:43.338Z,99795.50
2023-01-08T05:48:46.581Z,99793.63
2023-01-08T05:52:49.433Z,99793.22
2023-01-08T05:56:52.561Z,99790.66
2023-01-08T06:01:03.777Z,99788.41
2023-01-08T06:05:07.525Z,99786.50
2023-01-08T06:09:11.031Z,99784.09
2023-01-08T06:13:14.621Z,99784.84
2023-01-08T06:17:19.240Z,99775.13
2023-01-08T06:21:22.393Z,99773.50
2023-01-08T06:25:25.616Z,99770.88
2023-01-08T06:29:28.537Z,99750.91
2023-01-08T06:33:32.900Z,99760.41
2023-01-08T06:37:35.577Z,99762.03
2023-01-08T06:41:40.270Z,99738.59
2023-01-08T06:45:43.226Z,99749.03
2023-01-08T06:49:47.562Z,99758.81
2023-01-08T06:53:51.089Z,99773.03
2023-01-08T06:57:55.822Z,99782.66
2023-01-08T07:02:00.748Z,99792.22
2023-01-08T07:06:05.910Z,99773.13
2023-01-08T07:10:08.893Z,99770.50
2023-01-08T07:14:12.111Z,99764.69
2023-01-08T07:18:15.378Z,99753.53
2023-01-08T07:22:20.493Z,99749.84
2023-01-08T07:26:23.740Z,99742.97
2023-01-08T07:30:30.273Z,99741.22
2023-01-08T07:34:34.993Z,99721.22
2023-01-08T07:38:39.668Z,99730.75
2023-01-08T07:42:43.166Z,99733.16
2023-01-08T07:46:46.421Z,99724.25
2023-01-08T07:50:49.483Z,99717.44
2023-01-08T07:54:54.217Z,99703.56
2023-01-08T07:58:56.943Z,99713.03
2023-01-08T08:03:05.389Z,99716.38
2023-01-08T08:07:09.543Z,99722.31
2023-01-08T08:11:14.390Z,99709.31
2023-01-08T08:15:17.768Z,99715.31
2023-01-08T08:19:20.765Z,99706.41
2023-01-08T08:23:23.667Z,99698.56
2023-01-08T08:27:27.897Z,99691.09
2023-01-08T08:31:31.313Z,99677.78
2023-01-08T08:35:34.982Z,99670.13
2023-01-08T08:39:39.232Z,99679.63
2023-01-08T08:43:44.098Z,99669.25
2023-01-08T08:47:47.396Z,99692.53
2023-01-08T08:51:50.049Z,99681.81
2023-01-08T08:55:53.108Z,99684.06
2023-01-08T08:59:57.888Z,99671.16
2023-01-08T09:04:02.058Z,99683.25
2023-01-08T09:08:04.950Z,99675.94
2023-01-08T09:12:08.745Z,99679.59
2023-01-08T09:16:13.151Z,99672.50
2023-01-08T09:20:16.706Z,99671.00
2023-01-08T09:24:19.866Z,99674.25
2023-01-08T09:28:22.827Z,99673.47
2023-01-08T09:32:27.383Z,99671.63
2023-01-08T09:36:31.108Z,99687.53
2023-01-08T09:40:38.456Z,99673.75
2023-01-08T09:44:44.994Z,99669.13
2023-01-08T09:48:51.547Z,99659.53
2023-01-08T09:52:55.050Z,99659.53
2023-01-08T09:57:00.658Z,99645.16
2023-01-08T10:01:04.700Z,99634.41
2023-01-08T10:05:15.025Z,99626.00
2023-01-08T10:09:18.478Z,99632.53
2023-01-08T10:13:21.463Z,99617.56
2023-01-08T10:17:29.515Z,99634.03
2023-01-08T10:21:41.293Z,99613.06
2023-01-08T10:25:53.930Z,99608.41
2023-01-08T10:30:07.995Z,99597.53
2023-01-08T10:34:12.416Z,99593.09
2023-01-08T10:38:28.342Z,99579.53
2023-01-08T10:42:36.988Z,99573.81
2023-01-08T10:46:45.687Z,99574.94
2023-01-08T10:50:48.923Z,99571.97
2023-01-08T10:54:53.227Z,99575.00
2023-01-08T10:58:56.814Z,99565.38
2023-01-08T11:03:03.217Z,99561.88
2023-01-08T11:07:08.575Z,99563.31
2023-01-08T11:11:13.512Z,99557.53
2023-01-08T11:15:30.736Z,99556.00
2023-01-08T11:19:35.316Z,99547.78
2023-01-08T11:23:38.952Z,99535.09
2023-01-08T11:27:44.130Z,99541.00
2023-01-08T11:31:55.959Z,99527.47
2023-01-08T11:36:06.095Z,99536.59
2023-01-08T11:40:16.051Z,99541.69
2023-01-08T11:44:39.936Z,99546.34
2023-01-08T11:49:17.865Z,99532.44
2023-01-08T11:53:29.288Z,99535.53
2023-01-08T11:57:42.550Z,99524.88
2023-01-08T12:01:57.406Z,99523.13
2023-01-08T12:06:13.556Z,99513.75
2023-01-08T12:10:25.820Z,99530.97
2023-01-08T12:14:48.444Z,99522.63
2023-01-08T12:19:19.236Z,99512.88
2023-01-08T12:23:38.506Z,99500.03
2023-01-08T12:27:58.359Z,99510.50
2023-01-08T12:32:18.491Z,99512.56
2023-01-08T12:36:30.128Z,99520.38
2023-01-08T12:40:38.366Z,99504.16
2023-01-08T12:44:43.320Z,99501.56
2023-01-08T12:48:52.009Z,99495.19
2023-01-08T12:53:02.172Z,99481.41
2023-01-08T12:57:13.515Z,99477.00
2023-01-08T13:01:27.282Z,99480.25
2023-01-08T13:05:34.306Z,99485.22
2023-01-08T13:09:38.791Z,99478.69
2023-01-08T13:13:45.412Z,99475.84
2023-01-08T13:17:49.757Z,99463.94
2023-01-08T13:21:55.285Z,99465.75
2023-01-08T13:26:00.914Z,99463.81
2023-01-08T13:30:04.457Z,99475.31
2023-01-08T13:34:19.604Z,99468.63
2023-01-08T13:38:23.643Z,99460.16
2023-01-08T13:42:29.342Z,99459.38
2023-01-08T13:46:33.575Z,99469.09
2023-01-08T13:50:38.557Z,99462.97
2023-01-08T13:54:44.832Z,99467.44
2023-01-08T13:58:55.139Z,99459.75
2023-01-08T14:02:58.456Z,99469.53
2023-01-08T14:07:15.196Z,99466.84
2023-01-08T14:11:22.719Z,99458.25
2023-01-08T14:15:29.997Z,99454.94
2023-01-08T14:19:33.503Z,99451.69
2023-01-08T14:23:38.010Z,99452.63
2023-01-08T14:27:41.487Z,99440.50
2023-01-08T14:31:49.809Z,99445.06
2023-01-08T14:35:53.367Z,99442.44
2023-01-08T14:39:56.710Z,99441.69
2023-01-08T14:44:00.117Z,99436.53
2023-01-08T14:48:12.551Z,99431.03
2023-01-08T14:52:18.636Z,99434.06
2023-01-08T14:56:25.353Z,99425.31
2023-01-08T15:00:30.859Z,99429.56
2023-01-08T15:04:35.601Z,99421.44
2023-01-08T15:08:40.749Z,99404.22
2023-01-08T15:12:43.943Z,99419.41
2023-01-08T15:16:48.006Z,99423.69
2023-01-08T15:20:53.130Z,99407.97
2023-01-08T15:25:02.238Z,99409.88
2023-01-08T15:29:07.806Z,99416.00
2023-01-08T15:33:20.628Z,99419.41
2023-01-08T15:37:25.294Z,99423.47
2023-01-08T15:41:53.607Z,99419.41
2023-01-08T15:45:57.393Z,99404.88
2023-01-08T15:50:00.620Z,99395.56
2023-01-08T15:54:05.320Z,99381.75
2023-01-08T15:58:08.757Z,99377.59
2023-01-08T16:02:13.387Z,99367.59
2023-01-08T16:06:16.656Z,99361.38
2023-01-08T16:10:21.908Z,99355.88
2023-01-08T16:14:26.828Z,99356.09
2023-01-08T16:18:30.673Z,99338.81
2023-01-08T16:22:33.601Z,99330.09
2023-01-08T16:26:37.775Z,99329.28
2023-01-08T16:30:44.368Z,99355.59
2023-01-08T16:34:47.567Z,99352.19
2023-01-08T16:38:53.774Z,99354.66
2023-01-08T16:43:03.142Z,99356.38
2023-01-08T16:47:06.196Z,99358.22
2023-01-08T16:51:09.572Z,99376.00
2023-01-08T16:55:12.488Z,99365.34
2023-01-08T16:59:23.252Z,99366.28
2023-01-08T17:03:27.156Z,99353.97
2023-01-08T17:07:30.229Z,99353.97
2023-01-08T17:11:33.372Z,99340.81
2023-01-08T17:15:38.468Z,99330.38
2023-01-08T17:19:41.701Z,99336.56
2023-01-08T17:23:46.734Z,99337.41
